createdAt,value
2024-02-21T00:01:00.027Z,10.50
2024-02-21T00:03:27.058Z,10.50
2024-02-21T00:05:54.115Z,10.50
2024-02-21T00:08:21.163Z,10.50
2024-02-21T00:10:48.744Z,10.50
2024-02-21T00:13:16.696Z,10.50
2024-02-21T00:15:43.688Z,10.60
2024-02-21T00:18:12.676Z,10.60
2024-02-21T00:20:39.816Z,10.60
2024-02-21T00:23:06.918Z,10.60
2024-02-21T00:25:34.061Z,10.50
2024-02-21T00:28:01.125Z,10.50
2024-02-21T00:30:28.921Z,10.50
2024-02-21T00:32:56.422Z,10.50
2024-02-21T00:35:23.553Z,10.50
2024-02-21T00:37:50.682Z,10.50
2024-02-21T00:40:21.515Z,10.60
2024-02-21T00:42:48.922Z,10.60
2024-02-21T00:45:16.102Z,10.50
2024-02-21T00:47:43.217Z,10.50
2024-02-21T00:50:11.048Z,10.50
2024-02-21T00:52:38.178Z,10.50
2024-02-21T00:55:06.471Z,10.50
2024-02-21T00:57:33.467Z,10.50
2024-02-21T01:00:00.798Z,10.50
2024-02-21T01:02:28.365Z,10.50
2024-02-21T01:04:55.628Z,10.60
2024-02-21T01:07:22.683Z,10.60
2024-02-21T01:09:49.995Z,10.50
2024-02-21T01:12:17.374Z,10.60
2024-02-21T01:14:46.177Z,10.60
2024-02-21T01:17:13.633Z,10.50
2024-02-21T01:19:40.722Z,10.60
2024-02-21T01:22:07.764Z,10.60
2024-02-21T01:24:35.432Z,10.60
2024-02-21T01:27:02.485Z,10.50
2024-02-21T01:29:29.557Z,10.60
2024-02-21T01:31:56.931Z,10.50
2024-02-21T01:34:24.201Z,10.50
2024-02-21T01:36:51.369Z,10.60
2024-02-21T01:39:19.044Z,10.50
2024-02-21T01:41:45.987Z,10.50
2024-02-21T01:44:12.914Z,10.60
2024-02-21T01:46:40.349Z,10.60
2024-02-21T01:49:08.000Z,10.50
2024-02-21T01:51:35.796Z,10.60
2024-02-21T01:54:03.268Z,10.60
2024-02-21T01:56:30.422Z,10.50
2024-02-21T01:58:57.817Z,10.50
2024-02-21T02:01:25.297Z,10.50
2024-02-21T02:03:54.059Z,10.50
2024-02-21T02:06:21.530Z,10.50
2024-02-21T02:08:48.626Z,10.50
2024-02-21T02:11:16.579Z,10.60
2024-02-21T02:13:43.915Z,10.50
2024-02-21T02:16:10.895Z,10.50
2024-02-21T02:18:38.083Z,10.50
2024-02-21T02:21:12.317Z,10.50
2024-02-21T02:23:39.456Z,10.50
2024-02-21T02:26:08.568Z,10.50
2024-02-21T02:28:35.771Z,10.50
2024-02-21T02:31:02.847Z,10.50
2024-02-21T02:33:30.147Z,10.60
2024-02-21T02:35:57.250Z,10.50
2024-02-21T02:38:24.144Z,10.50
2024-02-21T02:40:51.521Z,10.50
2024-02-21T02:43:18.665Z,10.50
2024-02-21T02:45:45.697Z,10.50
2024-02-21T02:48:12.855Z,10.50
2024-02-21T02:50:40.009Z,10.60
2024-02-21T02:53:06.999Z,10.50
2024-02-21T02:55:34.333Z,10.50
2024-02-21T02:58:01.796Z,10.50
2024-02-21T03:00:29.090Z,10.50
2024-02-21T03:02:56.425Z,10.50
2024-02-21T03:05:23.766Z,10.50
2024-02-21T03:07:51.288Z,10.50
2024-02-21T03:10:19.600Z,10.50
2024-02-21T03:12:47.352Z,10.50
2024-02-21T03:15:15.686Z,10.50
2024-02-21T03:17:43.195Z,10.50
2024-02-21T03:20:12.536Z,10.50
2024-02-21T03:22:41.315Z,10.50
2024-02-21T03:25:13.996Z,10.50
2024-02-21T03:27:41.117Z,10.50
2024-02-21T03:30:11.000Z,10.50
2024-02-21T03:32:39.423Z,10.50
2024-02-21T03:35:07.036Z,10.50
2024-02-21T03:37:34.147Z,10.50
2024-02-21T03:40:01.198Z,10.50
2024-02-21T03:42:31.058Z,10.50
2024-02-21T03:44:58.261Z,10.40
2024-02-21T03:47:25.610Z,10.40
2024-02-21T03:49:52.913Z,10.40
2024-02-21T03:52:20.289Z,10.40
2024-02-21T03:54:47.320Z,10.40
2024-02-21T03:57:14.371Z,10.40
2024-02-21T03:59:44.716Z,10.40
2024-02-21T04:02:12.085Z,10.30
2024-02-21T04:04:40.329Z,10.40
2024-02-21T04:07:10.394Z,10.40
2024-02-21T04:09:37.388Z,10.30
2024-02-21T04:12:04.838Z,10.40
2024-02-21T04:14:32.045Z,10.30
2024-02-21T04:16:59.300Z,10.40
2024-02-21T04:19:26.614Z,10.40
2024-02-21T04:21:53.696Z,10.30
2024-02-21T04:24:20.692Z,10.30
2024-02-21T04:26:47.686Z,10.30
2024-02-21T04:29:14.796Z,10.30
2024-02-21T04:31:42.319Z,10.30
2024-02-21T04:34:09.618Z,10.30
2024-02-21T04:36:36.897Z,10.30
2024-02-21T04:39:04.047Z,10.30
2024-02-21T04:41:31.194Z,10.30
2024-02-21T04:43:58.321Z,10.30
2024-02-21T04:46:25.492Z,10.30
2024-02-21T04:48:52.915Z,10.30
2024-02-21T04:51:19.953Z,10.20
2024-02-21T04:53:47.404Z,10.30
2024-02-21T04:56:14.910Z,10.20
2024-02-21T04:58:42.000Z,10.20
2024-02-21T05:01:09.402Z,10.20
2024-02-21T05:03:36.600Z,10.20
2024-02-21T05:06:04.068Z,10.20
2024-02-21T05:08:31.175Z,10.20
2024-02-21T05:10:58.328Z,10.20
2024-02-21T05:13:25.952Z,10.20
2024-02-21T05:15:53.077Z,10.20
2024-02-21T05:18:21.153Z,10.20
2024-02-21T05:20:48.225Z,10.20
2024-02-21T05:23:15.686Z,10.20
2024-02-21T05:25:42.955Z,10.20
2024-02-21T05:28:10.302Z,10.20
2024-02-21T05:30:37.461Z,10.10
2024-02-21T05:33:07.983Z,10.10
2024-02-21T05:35:36.094Z,10.10
2024-02-21T05:38:08.000Z,10.10
2024-02-21T05:40:35.173Z,10.10
2024-02-21T05:43:02.250Z,10.10
2024-02-21T05:45:29.376Z,10.10
2024-02-21T05:47:56.534Z,10.10
2024-02-21T05:50:25.005Z,10.10
2024-02-21T05:52:57.064Z,10.10
2024-02-21T05:55:24.457Z,10.10
2024-02-21T05:57:55.289Z,10.10
2024-02-21T06:00:22.331Z,10.10
2024-02-21T06:02:49.543Z,10.10
2024-02-21T06:05:16.972Z,10.10
2024-02-21T06:07:44.096Z,10.10
2024-02-21T06:10:11.297Z,10.10
2024-02-21T06:12:38.506Z,10.10
2024-02-21T06:15:06.058Z,10.10
2024-02-21T06:17:33.161Z,10.10
2024-02-21T06:20:00.534Z,10.00
2024-02-21T06:22:27.726Z,10.00
2024-02-21T06:24:55.736Z,10.00
2024-02-21T06:27:22.835Z,10.00
2024-02-21T06:29:50.119Z,10.10
2024-02-21T06:32:17.161Z,10.00
2024-02-21T06:34:45.281Z,10.00
2024-02-21T06:37:12.812Z,10.10
2024-02-21T06:39:42.310Z,10.10
2024-02-21T06:42:09.385Z,10.10
2024-02-21T06:44:41.951Z,10.10
2024-02-21T06:47:09.804Z,10.00
2024-02-21T06:49:38.557Z,10.00
2024-02-21T06:52:06.879Z,9.90
2024-02-21T06:54:34.347Z,9.90
2024-02-21T06:57:03.678Z,9.90
2024-02-21T06:59:30.722Z,9.90
2024-02-21T07:01:57.883Z,9.90
2024-02-21T07:04:25.252Z,9.90
2024-02-21T07:06:52.822Z,9.90
2024-02-21T07:09:20.281Z,9.90
2024-02-21T07:11:47.643Z,9.90
2024-02-21T07:14:16.759Z,9.90
2024-02-21T07:16:43.850Z,9.90
2024-02-21T07:19:11.117Z,9.90
2024-02-21T07:21:43.471Z,9.90
2024-02-21T07:24:10.670Z,9.90
2024-02-21T07:26:37.814Z,9.80
2024-02-21T07:29:05.050Z,9.80
2024-02-21T07:31:32.565Z,9.80
2024-02-21T07:33:59.729Z,9.80
2024-02-21T07:36:31.830Z,9.80
2024-02-21T07:38:59.189Z,9.80
2024-02-21T07:41:31.569Z,9.80
2024-02-21T07:44:00.324Z,9.70
2024-02-21T07:46:27.443Z,9.80
2024-02-21T07:48:54.571Z,9.80
2024-02-21T07:51:21.947Z,9.80
2024-02-21T07:53:50.115Z,9.70
2024-02-21T07:56:17.429Z,9.70
2024-02-21T07:58:44.597Z,9.70
2024-02-21T08:01:12.599Z,9.70
2024-02-21T08:03:39.728Z,9.70
2024-02-21T08:06:06.918Z,9.70
2024-02-21T08:08:34.249Z,9.70
2024-02-21T08:11:01.418Z,9.70
2024-02-21T08:13:30.245Z,9.70
2024-02-21T08:15:58.524Z,9.70
2024-02-21T08:18:25.906Z,9.70
2024-02-21T08:20:53.216Z,9.70
2024-02-21T08:23:21.158Z,9.70
2024-02-21T08:25:48.594Z,9.70
2024-02-21T08:28:15.907Z,9.70
2024-02-21T08:30:49.597Z,9.70
2024-02-21T08:33:18.026Z,9.70
2024-02-21T08:35:45.232Z,9.70
2024-02-21T08:38:12.331Z,9.70
2024-02-21T08:40:39.390Z,9.70
2024-02-21T08:43:06.421Z,9.70
2024-02-21T08:45:33.489Z,9.70
2024-02-21T08:48:01.016Z,9.70
2024-02-21T08:50:29.643Z,9.70
2024-02-21T08:52:57.581Z,9.70
2024-02-21T08:55:25.744Z,9.70
2024-02-21T08:57:52.871Z,9.70
2024-02-21T09:00:25.471Z,9.80
2024-02-21T09:02:52.636Z,9.80
2024-02-21T09:05:20.755Z,9.80
2024-02-21T09:07:48.152Z,9.70
2024-02-21T09:10:15.572Z,9.80
2024-02-21T09:12:42.692Z,9.80
2024-02-21T09:15:10.045Z,9.80
2024-02-21T09:17:37.112Z,9.80
2024-02-21T09:20:04.806Z,9.80
2024-02-21T09:22:35.249Z,9.80
2024-02-21T09:25:04.930Z,9.80
2024-02-21T09:27:32.336Z,9.80
2024-02-21T09:29:59.464Z,9.80
2024-02-21T09:32:26.983Z,9.80
2024-02-21T09:34:59.136Z,9.80
2024-02-21T09:37:28.369Z,9.80
2024-02-21T09:39:55.547Z,9.80
2024-02-21T09:42:25.596Z,9.90
2024-02-21T09:44:52.691Z,9.90
2024-02-21T09:47:26.092Z,9.90
2024-02-21T09:49:54.141Z,9.90
2024-02-21T09:52:22.160Z,9.90
2024-02-21T09:54:50.352Z,9.90
2024-02-21T09:57:17.906Z,9.90
2024-02-21T09:59:46.950Z,9.90
2024-02-21T10:02:14.243Z,9.90
2024-02-21T10:04:42.428Z,10.00
2024-02-21T10:07:10.369Z,10.00
2024-02-21T10:09:37.559Z,10.00
2024-02-21T10:12:12.832Z,10.00
2024-02-21T10:14:40.655Z,10.00
2024-02-21T10:17:11.785Z,10.00
2024-02-21T10:19:41.899Z,10.00
2024-02-21T10:22:10.644Z,10.10
2024-02-21T10:24:44.873Z,10.10
2024-02-21T10:27:13.059Z,10.10
2024-02-21T10:29:41.215Z,10.10
2024-02-21T10:32:13.664Z,10.10
2024-02-21T10:34:44.604Z,10.20
2024-02-21T10:37:12.992Z,10.20
2024-02-21T10:39:41.331Z,10.30
2024-02-21T10:42:11.863Z,10.30
2024-02-21T10:44:44.223Z,10.20
2024-02-21T10:47:14.502Z,10.30
2024-02-21T10:49:47.015Z,10.30
2024-02-21T10:52:32.685Z,10.30
2024-02-21T10:55:28.266Z,10.30
2024-02-21T10:57:56.544Z,10.30
2024-02-21T11:00:28.646Z,10.40
2024-02-21T11:02:56.082Z,10.40
2024-02-21T11:05:24.267Z,10.40
2024-02-21T11:07:52.539Z,10.40
2024-02-21T11:10:26.985Z,10.50
2024-02-21T11:13:10.526Z,10.40
2024-02-21T11:15:37.635Z,10.50
2024-02-21T11:18:05.249Z,10.50
2024-02-21T11:20:39.676Z,10.50
2024-02-21T11:23:07.069Z,10.60
2024-02-21T11:25:35.747Z,10.60
2024-02-21T11:28:04.166Z,10.60
2024-02-21T11:30:39.750Z,10.70
2024-02-21T11:33:09.888Z,10.70
2024-02-21T11:35:38.150Z,10.70
2024-02-21T11:38:18.519Z,10.70
2024-02-21T11:40:47.586Z,10.70
2024-02-21T11:43:14.862Z,10.70
2024-02-21T11:45:41.971Z,10.70
2024-02-21T11:48:09.333Z,10.80
2024-02-21T11:50:38.389Z,10.80
2024-02-21T11:53:05.560Z,10.80
2024-02-21T11:55:32.983Z,10.80
2024-02-21T11:58:00.263Z,10.80
2024-02-21T12:00:27.968Z,10.90
2024-02-21T12:02:57.104Z,10.90
2024-02-21T12:05:24.370Z,10.90
2024-02-21T12:07:52.094Z,11.00
2024-02-21T12:10:19.224Z,10.90
2024-02-21T12:12:46.331Z,11.00
2024-02-21T12:15:13.459Z,11.00
2024-02-21T12:17:42.079Z,11.00
2024-02-21T12:20:16.889Z,11.00
2024-02-21T12:22:44.138Z,11.00
2024-02-21T12:25:27.694Z,11.10
2024-02-21T12:27:55.436Z,11.10
2024-02-21T12:30:22.688Z,11.10
2024-02-21T12:32:50.303Z,11.10
2024-02-21T12:35:18.771Z,11.10
2024-02-21T12:37:46.186Z,11.10
2024-02-21T12:40:15.031Z,11.10
2024-02-21T12:42:42.922Z,11.20
2024-02-21T12:45:10.821Z,11.10
2024-02-21T12:47:38.019Z,11.10
2024-02-21T12:50:08.381Z,11.20
2024-02-21T12:52:35.745Z,11.20
2024-02-21T12:55:02.870Z,11.20
2024-02-21T12:57:29.943Z,11.20
2024-02-21T12:59:57.202Z,11.30
2024-02-21T13:02:24.888Z,11.20
2024-02-21T13:04:52.259Z,11.30
2024-02-21T13:07:19.625Z,11.30
2024-02-21T13:09:47.131Z,11.30
2024-02-21T13:12:14.483Z,11.30
2024-02-21T13:14:45.198Z,11.30
2024-02-21T13:17:12.526Z,11.30
2024-02-21T13:19:40.334Z,11.30
2024-02-21T13:22:08.563Z,11.30
2024-02-21T13:24:35.557Z,11.30
2024-02-21T13:27:03.269Z,11.30
2024-02-21T13:29:30.654Z,11.30
2024-02-21T13:31:58.007Z,11.40
2024-02-21T13:34:25.551Z,11.40
2024-02-21T13:36:52.616Z,11.30
2024-02-21T13:39:20.814Z,11.30
2024-02-21T13:41:48.038Z,11.40
2024-02-21T13:44:15.438Z,11.40
2024-02-21T13:46:42.573Z,11.40
2024-02-21T13:49:09.900Z,11.40
2024-02-21T13:51:37.690Z,11.40
2024-02-21T13:54:05.792Z,11.40
2024-02-21T13:56:32.836Z,11.40
2024-02-21T13:59:01.692Z,11.50
2024-02-21T14:01:33.705Z,11.50
2024-02-21T14:04:01.103Z,11.40
2024-02-21T14:06:28.327Z,11.50
2024-02-21T14:08:55.540Z,11.40
2024-02-21T14:11:23.056Z,11.50
2024-02-21T14:13:50.275Z,11.50
2024-02-21T14:16:17.346Z,11.50
2024-02-21T14:18:44.876Z,11.50
2024-02-21T14:21:15.061Z,11.50
2024-02-21T14:23:42.111Z,11.50
2024-02-21T14:26:10.013Z,11.50
2024-02-21T14:28:37.233Z,11.40
2024-02-21T14:31:05.406Z,11.50
2024-02-21T14:33:32.606Z,11.50
2024-02-21T14:35:59.746Z,11.50
2024-02-21T14:38:26.879Z,11.50
2024-02-21T14:40:53.868Z,11.50
2024-02-21T14:43:22.957Z,11.50
2024-02-21T14:45:50.310Z,11.50
2024-02-21T14:48:18.348Z,11.50
2024-02-21T14:50:45.689Z,11.50
2024-02-21T14:53:12.929Z,11.50
2024-02-21T14:55:40.561Z,11.50
2024-02-21T14:58:09.113Z,11.50
2024-02-21T15:00:36.506Z,11.60
2024-02-21T15:03:04.253Z,11.50
2024-02-21T15:05:32.029Z,11.50
2024-02-21T15:07:59.803Z,11.50
2024-02-21T15:10:28.010Z,11.50
2024-02-21T15:12:55.548Z,11.50
2024-02-21T15:15:23.069Z,11.50
2024-02-21T15:17:50.214Z,11.50
2024-02-21T15:20:17.473Z,11.50
2024-02-21T15:22:45.452Z,11.50
2024-02-21T15:25:16.783Z,11.40
2024-02-21T15:27:44.440Z,11.40
2024-02-21T15:30:15.694Z,11.50
2024-02-21T15:32:46.408Z,11.40
2024-02-21T15:35:14.333Z,11.40
2024-02-21T15:37:41.877Z,11.40
2024-02-21T15:40:10.030Z,11.40
2024-02-21T15:42:37.313Z,11.40
2024-02-21T15:45:08.744Z,11.40
2024-02-21T15:47:35.934Z,11.30
2024-02-21T15:50:04.247Z,11.30
2024-02-21T15:52:31.837Z,11.30
2024-02-21T15:54:59.152Z,11.20
2024-02-21T15:57:26.554Z,11.20
2024-02-21T15:59:55.611Z,11.20
2024-02-21T16:02:23.024Z,11.20
2024-02-21T16:04:50.742Z,11.10
2024-02-21T16:07:19.804Z,11.10
2024-02-21T16:09:48.652Z,11.10
2024-02-21T16:12:17.574Z,11.10
2024-02-21T16:14:45.099Z,11.10
2024-02-21T16:17:12.786Z,11.10
2024-02-21T16:19:40.094Z,11.10
2024-02-21T16:22:07.341Z,11.00
2024-02-21T16:24:34.359Z,11.00
2024-02-21T16:27:10.140Z,11.00
2024-02-21T16:29:38.121Z,11.00
2024-02-21T16:32:05.800Z,10.90
2024-02-21T16:34:34.190Z,10.90
2024-02-21T16:37:01.817Z,10.90
2024-02-21T16:39:28.930Z,10.90
2024-02-21T16:41:58.537Z,10.90
2024-02-21T16:44:25.626Z,10.80
2024-02-21T16:46:54.845Z,10.80
2024-02-21T16:49:22.818Z,10.80
2024-02-21T16:51:50.047Z,10.80
2024-02-21T16:54:29.339Z,10.80
2024-02-21T16:56:56.309Z,10.70
2024-02-21T16:59:23.356Z,10.70
2024-02-21T17:01:53.058Z,10.70
2024-02-21T17:04:20.555Z,10.70
2024-02-21T17:06:48.304Z,10.70
2024-02-21T17:09:19.202Z,10.60
2024-02-21T17:11:47.035Z,10.60
2024-02-21T17:14:14.203Z,10.60
2024-02-21T17:16:41.946Z,10.60
2024-02-21T17:19:09.064Z,10.50
2024-02-21T17:21:36.273Z,10.50
2024-02-21T17:24:03.260Z,10.50
2024-02-21T17:26:30.467Z,10.50
2024-02-21T17:28:57.475Z,10.50
2024-02-21T17:31:24.678Z,10.50
2024-02-21T17:33:51.811Z,10.50
2024-02-21T17:36:19.115Z,10.50
2024-02-21T17:38:46.261Z,10.50
2024-02-21T17:41:14.007Z,10.50
2024-02-21T17:43:41.257Z,10.50
2024-02-21T17:46:08.325Z,10.50
2024-02-21T17:48:35.894Z,10.50
2024-02-21T17:51:03.134Z,10.40
2024-02-21T17:53:30.762Z,10.40
2024-02-21T17:55:58.245Z,10.40
2024-02-21T17:58:25.736Z,10.40
2024-02-21T18:00:55.074Z,10.40
2024-02-21T18:03:22.312Z,10.40
2024-02-21T18:05:49.954Z,10.30
2024-02-21T18:08:17.793Z,10.40
2024-02-21T18:10:45.318Z,10.30
2024-02-21T18:13:12.400Z,10.30
2024-02-21T18:18:31.870Z,10.30
2024-02-21T18:20:59.337Z,10.30
2024-02-21T18:23:31.006Z,10.30
2024-02-21T18:25:59.061Z,10.30
2024-02-21T18:28:26.548Z,10.20
2024-02-21T18:30:53.773Z,10.30
2024-02-21T18:33:20.987Z,10.30
2024-02-21T18:35:48.159Z,10.30
2024-02-21T18:38:15.366Z,10.30
2024-02-21T18:40:42.609Z,10.30
2024-02-21T18:43:10.803Z,10.20
2024-02-21T18:45:37.790Z,10.20
2024-02-21T18:48:05.394Z,10.20
2024-02-21T18:50:32.663Z,10.20
2024-02-21T18:53:01.251Z,10.20
2024-02-21T18:55:28.811Z,10.20
2024-02-21T18:57:55.931Z,10.20
2024-02-21T19:00:26.833Z,10.20
2024-02-21T19:05:38.234Z,10.20
2024-02-21T19:08:06.089Z,10.20
2024-02-21T19:10:33.382Z,10.20
2024-02-21T19:13:00.354Z,10.20
2024-02-21T19:15:28.013Z,10.20
2024-02-21T19:17:55.188Z,10.20
2024-02-21T19:20:22.864Z,10.20
2024-02-21T19:22:49.988Z,10.10
2024-02-21T19:25:22.755Z,10.10
2024-02-21T19:27:50.007Z,10.10
2024-02-21T19:30:17.800Z,10.10
2024-02-21T19:32:44.990Z,10.10
2024-02-21T19:35:13.104Z,10.10
2024-02-21T19:37:41.079Z,10.10
2024-02-21T19:40:09.645Z,10.10
2024-02-21T19:42:37.561Z,10.10
2024-02-21T19:45:05.826Z,10.10
2024-02-21T19:47:32.953Z,10.20
2024-02-21T19:50:01.392Z,10.10
2024-02-21T19:52:28.479Z,10.10
2024-02-21T19:54:56.225Z,10.10
2024-02-21T19:57:23.263Z,10.10
2024-02-21T19:59:50.620Z,10.10
2024-02-21T20:02:17.797Z,10.10
2024-02-21T20:04:45.183Z,10.10
2024-02-21T20:07:12.260Z,10.10
2024-02-21T20:09:42.716Z,10.10
2024-02-21T20:12:09.954Z,10.20
2024-02-21T20:14:37.419Z,10.20
2024-02-21T20:17:04.967Z,10.20
2024-02-21T20:19:32.056Z,10.20
2024-02-21T20:21:59.565Z,10.10
2024-02-21T20:24:35.403Z,10.20
2024-02-21T20:27:07.569Z,10.20
2024-02-21T20:29:34.839Z,10.20
2024-02-21T20:32:03.290Z,10.20
2024-02-21T20:34:34.705Z,10.20
2024-02-21T20:37:02.094Z,10.20
2024-02-21T20:39:32.257Z,10.20
2024-02-21T20:41:59.388Z,10.20
2024-02-21T20:44:26.434Z,10.20
2024-02-21T20:46:53.676Z,10.20
2024-02-21T20:49:20.923Z,10.20
2024-02-21T20:51:48.085Z,10.20
2024-02-21T20:54:15.593Z,10.20
2024-02-21T20:56:43.052Z,10.20
2024-02-21T20:59:10.579Z,10.20
2024-02-21T21:01:41.535Z,10.20
2024-02-21T21:04:12.194Z,10.20
2024-02-21T21:06:39.426Z,10.20
2024-02-21T21:09:09.827Z,10.20
2024-02-21T21:11:46.140Z,10.20
2024-02-21T21:14:14.834Z,10.20
2024-02-21T21:16:42.068Z,10.20
2024-02-21T21:19:09.964Z,10.30
2024-02-21T21:21:37.304Z,10.30
2024-02-21T21:24:04.717Z,10.30
2024-02-21T21:26:31.988Z,10.20
2024-02-21T21:28:59.273Z,10.30
2024-02-21T21:31:26.848Z,10.30
2024-02-21T21:33:55.000Z,10.30
2024-02-21T21:36:21.975Z,10.30
2024-02-21T21:38:49.703Z,10.30
2024-02-21T21:41:17.149Z,10.30
2024-02-21T21:43:44.611Z,10.30
2024-02-21T21:46:15.148Z,10.30
2024-02-21T21:48:45.544Z,10.30
2024-02-21T21:51:15.880Z,10.30
2024-02-21T21:53:45.095Z,10.30
2024-02-21T21:56:12.606Z,10.30
2024-02-21T21:58:39.816Z,10.30
2024-02-21T22:01:10.910Z,10.30
2024-02-21T22:03:38.249Z,10.40
2024-02-21T22:06:05.740Z,10.40
2024-02-21T22:08:32.879Z,10.30
2024-02-21T22:10:59.973Z,10.30
2024-02-21T22:13:27.362Z,10.30
2024-02-21T22:15:54.733Z,10.40
2024-02-21T22:18:21.741Z,10.40
2024-02-21T22:20:48.834Z,10.40
2024-02-21T22:23:17.657Z,10.40
2024-02-21T22:25:48.008Z,10.40
2024-02-21T22:28:15.041Z,10.40
2024-02-21T22:30:42.241Z,10.40
2024-02-21T22:33:10.357Z,10.40
2024-02-21T22:35:37.676Z,10.40
2024-02-21T22:38:05.104Z,10.50
2024-02-21T22:40:32.368Z,10.40
2024-02-21T22:42:59.350Z,10.50
2024-02-21T22:45:26.370Z,10.50
2024-02-21T22:47:53.672Z,10.50
2024-02-21T22:50:20.986Z,10.50
2024-02-21T22:52:48.041Z,10.50
2024-02-21T22:55:15.721Z,10.50
2024-02-21T22:57:44.455Z,10.50
2024-02-21T23:00:17.071Z,10.50
2024-02-21T23:02:44.373Z,10.50
2024-02-21T23:05:12.148Z,10.50
2024-02-21T23:07:39.410Z,10.50
2024-02-21T23:10:07.018Z,10.50
2024-02-21T23:12:36.021Z,10.50
2024-02-21T23:15:04.120Z,10.50
2024-02-21T23:17:31.284Z,10.60
2024-02-21T23:19:58.383Z,10.50
2024-02-21T23:22:25.385Z,10.60
2024-02-21T23:24:52.475Z,10.60
2024-02-21T23:27:19.626Z,10.60
2024-02-21T23:29:47.228Z,10.60
2024-02-21T23:32:15.465Z,10.60
2024-02-21T23:34:42.726Z,10.60
2024-02-21T23:37:10.265Z,10.60
2024-02-21T23:39:37.311Z,10.60
2024-02-21T23:42:04.553Z,10.60
2024-02-21T23:44:31.716Z,10.70
2024-02-21T23:47:00.098Z,10.60
2024-02-21T23:49:27.469Z,10.70
2024-02-21T23:51:56.786Z,10.70
2024-02-21T23:54:23.789Z,10.70
2024-02-21T23:56:51.090Z,10.70
2024-02-21T23:59:18.939Z,10.70
